This is the latest recevied weather packets stored in our database for station/object VK6DUG. If no packets are shown the sender has not sent any weather packets the latest 10 day(s).
| Time | Temp. | Humidity | Pressure | Rain* | Wind** | Luminosity | Snow |
|---|---|---|---|---|---|---|---|
| 1777768234 | 9.44° C | 97% | 1030.6 hPa | 0 mm | - | 101 W/m² | - |
| 1777767632 | 8.89° C | 97% | 1030.6 hPa | 0 mm | - | 96 W/m² | - |
| 1777767029 | 7.78° C | 97% | 1030.5 hPa | 0 mm | - | 89 W/m² | - |
| 1777766425 | 7.22° C | 97% | 1030.4 hPa | 0 mm | - | 77 W/m² | - |
| 1777765821 | 6.11° C | 96% | 1030.3 hPa | 0 mm | - | 30 W/m² | - |
| 1777765219 | 5.56° C | 96% | 1030 hPa | 0 mm | - | 24 W/m² | - |
| 1777764616 | 5.56° C | 96% | 1030 hPa | 0 mm | - | 20 W/m² | - |
| 1777764033 | 5.56° C | 96% | 1029.9 hPa | 0 mm | - | 17 W/m² | - |
| 1777763430 | 5° C | 96% | 1029.7 hPa | 0 mm | - | 12 W/m² | - |
| 1777762828 | 5° C | 96% | 1029.5 hPa | 0 mm | - | 7 W/m² | - |
| 1777762225 | 5° C | 96% | 1029.3 hPa | 0 mm | - | 2 W/m² | - |
| 1777761622 | 5° C | 96% | 1029.3 hPa | 0 mm | - | 0 W/m² | - |
| 1777761020 | 5° C | 96% | 1029.3 hPa | 0 mm | - | 0 W/m² | - |
| 1777760416 | 5.56° C | 96% | 1029.3 hPa | 0 mm | - | 0 W/m² | - |
| 1777759832 | 5.56° C | 96% | 1029.2 hPa | 0 mm | - | 0 W/m² | - |
| 1777759228 | 5.56° C | 96% | 1029.2 hPa | 0 mm | - | 0 W/m² | - |
| 1777758624 | 5° C | 96% | 1029.1 hPa | 0 mm | - | 0 W/m² | - |
| 1777758021 | 5.56° C | 96% | 1029 hPa | 0 mm | - | 0 W/m² | - |
| 1777757417 | 5.56° C | 96% | 1028.9 hPa | 0 mm | - | 0 W/m² | - |
| 1777756835 | 5.56° C | 96% | 1028.8 hPa | 0 mm | - | 0 W/m² | - |
| 1777756232 | 5.56° C | 96% | 1028.7 hPa | 0 mm | - | 0 W/m² | - |
| 1777755629 | 5.56° C | 96% | 1028.7 hPa | 0 mm | - | 0 W/m² | - |
| 1777755025 | 6.11° C | 95% | 1028.6 hPa | 0 mm | - | 0 W/m² | - |
| 1777754423 | 6.11° C | 95% | 1028.6 hPa | 0 mm | - | 0 W/m² | - |
| 1777753819 | 6.11° C | 95% | 1028.5 hPa | 0 mm | - | 0 W/m² | - |
* Rain latest hour (hover to see other rain measurements)
** Current wind speed in m/s (hover to see current wind gust speed)